createdAt,value
2016-05-20T07:28:02.991Z,55.2
2016-05-20T07:28:12.991Z,54.9
2016-05-20T07:30:04.309Z,56
2016-05-20T07:30:14.293Z,55.2
2016-05-20T07:30:24.293Z,54.3
2016-05-20T07:30:46.890Z,53.4
2016-05-20T07:30:56.874Z,53.3
2016-05-20T07:31:06.890Z,53.4
2016-05-20T07:31:16.874Z,53.3
2016-05-20T07:31:26.890Z,53.2
2016-05-20T07:31:36.877Z,53.2
2016-05-20T07:31:46.877Z,53.1
2016-05-20T07:32:06.065Z,53
2016-05-20T07:32:16.065Z,53
2016-05-20T07:32:26.065Z,53.8
2016-05-20T07:32:36.051Z,55
2016-05-20T07:32:46.051Z,55
2016-05-20T07:32:56.051Z,54.8
2016-05-20T07:33:06.051Z,54.3
2016-05-20T07:33:16.036Z,53.9
2016-05-20T07:33:26.036Z,53.7
2016-05-20T07:33:36.039Z,53.6
2016-05-20T07:33:46.039Z,53.4
2016-05-20T07:33:56.054Z,53.4
2016-05-20T07:34:06.039Z,53.7
2016-05-20T07:34:16.039Z,54
2016-05-20T07:34:26.023Z,54
2016-05-20T07:34:36.026Z,54.4
2016-05-20T07:34:46.026Z,55.6
2016-05-20T07:34:56.026Z,57
2016-05-20T07:35:06.026Z,57.3
2016-05-20T07:35:16.026Z,57.3
2016-05-20T07:35:26.026Z,56.4
2016-05-20T07:35:36.028Z,55.9
2016-05-20T07:35:46.028Z,0.6
2016-05-20T07:35:56.012Z,0.6
2016-05-20T07:36:06.012Z,0.6
2016-05-20T07:36:16.012Z,0.6
2016-05-20T07:36:26.012Z,0.6
2016-05-20T07:36:36.014Z,0.6
2016-05-20T07:36:45.999Z,0.6
2016-05-20T07:36:56.014Z,0.6
2016-05-20T07:37:06.030Z,0.6
2016-05-20T07:37:15.999Z,0.6
2016-05-20T07:37:25.999Z,0.6
2016-05-20T07:37:36.002Z,0.6
2016-05-20T07:37:46.002Z,0.6
2016-05-20T07:37:56.002Z,0.6
2016-05-20T07:38:06.033Z,0.6
2016-05-20T07:38:16.002Z,0.6
2016-05-20T07:38:25.986Z,0.6
2016-05-20T07:38:35.989Z,0.6
2016-05-20T07:38:46.005Z,0.6
2016-05-20T07:38:55.989Z,0.6
2016-05-20T07:39:05.989Z,0.6
2016-05-20T07:39:15.989Z,0.6
2016-05-20T07:51:42.463Z,0.6
2016-05-20T07:51:52.447Z,0.6
2016-05-20T07:52:02.447Z,0.6
2016-05-20T07:52:12.447Z,0.6
2016-05-20T07:52:22.447Z,0.6
2016-05-20T07:52:32.448Z,0.6
2016-05-20T07:52:42.448Z,0.6
2016-05-20T07:52:52.464Z,0.6
2016-05-20T07:53:02.448Z,0.6
2016-05-20T07:53:12.432Z,0.6
2016-05-20T07:53:22.448Z,0.6
2016-05-20T07:53:32.435Z,0.6
2016-05-20T07:53:42.435Z,0.6
2016-05-20T07:53:52.435Z,0.6
2016-05-20T07:54:02.451Z,0.6
2016-05-20T07:54:21.670Z,0.6
2016-05-20T07:54:31.688Z,0.6
2016-05-20T07:54:41.782Z,0.6
2016-05-20T07:54:51.673Z,0.6
2016-05-20T07:55:01.673Z,0.6
2016-05-20T07:55:11.673Z,0.6
2016-05-20T07:55:22.032Z,0.6
2016-05-20T07:55:31.754Z,0.6
2016-05-20T07:55:41.676Z,0.6
2016-05-20T07:55:51.660Z,0.6
2016-05-20T07:56:01.660Z,0.6
2016-05-20T07:56:11.660Z,0.6
2016-05-20T07:56:38.772Z,0.6
2016-05-20T07:56:48.756Z,0.6
2016-05-20T07:56:58.756Z,0.6
2016-05-20T07:57:08.756Z,0.6
2016-05-20T07:57:18.756Z,0.6
2016-05-20T07:57:28.740Z,0.6
2016-05-20T07:57:38.775Z,0.6
2016-05-20T07:57:48.743Z,0.6
2016-05-20T07:57:58.743Z,0.6
2016-05-20T07:58:08.743Z,0.6
2016-05-20T07:58:18.743Z,0.6
2016-05-20T07:58:28.743Z,0.6
2016-05-20T07:58:38.746Z,0.6
2016-05-20T07:58:48.731Z,0.6
2016-05-20T07:58:58.746Z,0.6
2016-05-20T07:59:08.731Z,0.6
2016-05-20T07:59:18.731Z,0.6
2016-05-20T07:59:31.077Z,0.6
2016-05-20T07:59:43.499Z,0.6
2016-05-20T07:59:57.656Z,0.6
2016-05-20T08:00:07.937Z,0.6
2016-05-20T08:00:17.890Z,0.6
2016-05-20T08:00:27.890Z,0.6
2016-05-20T08:00:37.892Z,0.6
2016-05-20T08:00:47.892Z,0.6
2016-05-20T08:00:57.892Z,0.6
2016-05-20T08:01:07.892Z,0.6
2016-05-20T08:01:18.283Z,0.6
2016-05-20T08:01:27.892Z,0.6
2016-05-20T08:01:37.942Z,0.6
2016-05-20T08:01:47.879Z,0.6
2016-05-20T08:01:57.879Z,0.6
2016-05-20T08:02:07.895Z,0.6
2016-05-20T08:02:17.879Z,49.5
2016-05-20T08:02:33.632Z,48.8
2016-05-20T08:02:44.539Z,47.8
2016-05-20T08:02:54.492Z,47.5
2016-05-20T08:03:04.492Z,47
2016-05-20T08:03:14.492Z,46.6
2016-05-20T08:03:24.476Z,46.3
2016-05-20T08:03:34.478Z,45.9
2016-05-20T08:03:44.478Z,45.9
2016-05-20T08:03:54.478Z,45.9
2016-05-20T08:04:04.478Z,45.6
2016-05-20T08:04:14.478Z,45.3
2016-05-20T08:04:24.478Z,44.9
2016-05-20T08:04:34.481Z,44.6
2016-05-20T08:04:44.481Z,44.2
2016-05-20T08:04:54.481Z,43.9
2016-05-20T08:05:04.465Z,43.6
2016-05-20T08:05:14.465Z,43.5
2016-05-20T08:05:24.481Z,43.6
2016-05-20T08:05:34.484Z,43.6
2016-05-20T08:05:44.468Z,43.6
2016-05-20T08:05:54.468Z,43.5
2016-05-20T08:06:04.468Z,43.6
2016-05-20T08:06:14.468Z,44.9
2016-05-20T08:06:24.468Z,45.8
2016-05-20T08:06:34.470Z,48
2016-05-20T08:06:44.470Z,49.5
2016-05-20T08:06:54.455Z,50.6
2016-05-20T08:07:04.470Z,48.2
2016-05-20T08:07:17.580Z,44.9
2016-05-20T08:07:27.580Z,43.8
2016-05-20T08:07:41.817Z,43.5
2016-05-20T08:07:50.817Z,43.7
2016-05-20T08:08:00.817Z,44
2016-05-20T08:08:10.833Z,44.5
2016-05-20T08:08:20.817Z,45
2016-05-20T08:08:30.817Z,45.5
2016-05-20T08:08:40.820Z,45.9
2016-05-20T08:08:50.805Z,46.5
2016-05-20T08:09:00.805Z,46.9
2016-05-20T08:09:10.805Z,47.2
2016-05-20T08:09:20.805Z,47.6
2016-05-20T08:09:30.805Z,48.1
2016-05-20T08:09:41.089Z,48.4
2016-05-20T08:09:50.823Z,48.6
2016-05-20T08:10:00.964Z,48.8
2016-05-20T08:10:11.433Z,48.9
2016-05-20T08:10:20.808Z,48.9
2016-05-20T08:10:30.808Z,49.2
2016-05-20T08:10:40.810Z,49.5
2016-05-20T08:10:50.810Z,49.7
2016-05-20T08:11:00.794Z,50.8
2016-05-20T08:11:10.794Z,52.6
2016-05-20T08:11:20.810Z,51.7
2016-05-20T08:11:30.794Z,51
2016-05-20T08:11:40.797Z,50.3
2016-05-20T08:11:50.797Z,50
2016-05-20T08:12:00.797Z,50.7
2016-05-20T08:12:10.797Z,51.1
2016-05-20T08:12:20.797Z,50.4
2016-05-20T08:12:30.797Z,50
2016-05-20T08:12:40.800Z,49.7
2016-05-20T08:12:50.800Z,49.6
2016-05-20T08:13:00.816Z,49.4
2016-05-20T08:13:10.784Z,49.4
2016-05-20T08:13:20.784Z,49.4
2016-05-20T08:13:30.784Z,49.5
2016-05-20T08:13:40.786Z,49.6
2016-05-20T08:13:50.786Z,49.7
2016-05-20T08:14:00.786Z,49.8
2016-05-20T08:14:10.786Z,49.9
2016-05-20T08:14:20.786Z,50
2016-05-20T08:14:30.786Z,50.1
2016-05-20T08:14:40.789Z,52.8
2016-05-20T08:14:50.789Z,52.5
2016-05-20T08:15:00.789Z,52.1
2016-05-20T08:15:10.789Z,51.3
2016-05-20T08:15:20.774Z,50.4
2016-05-20T08:15:30.774Z,0.4
2016-05-20T08:15:40.777Z,0.4
2016-05-20T08:15:50.777Z,0.4
2016-05-20T08:16:00.777Z,0.4
2016-05-20T08:16:15.324Z,0.4
2016-05-20T08:16:25.261Z,0.4
2016-05-20T08:16:35.264Z,66.8
2016-05-20T08:16:45.264Z,60.8
2016-05-20T08:16:55.264Z,60.1
2016-05-20T08:17:05.264Z,52.9
2016-05-20T08:17:42.969Z,55.9
2016-05-20T08:17:52.016Z,47.7
2016-05-20T08:18:01.954Z,42.5
2016-05-20T08:18:11.954Z,39.5
2016-05-20T08:18:21.954Z,41.6
2016-05-20T08:18:31.954Z,43.9
2016-05-20T08:18:41.957Z,42.5
2016-05-20T08:18:51.957Z,39.2
2016-05-20T08:19:01.957Z,36.9
2016-05-20T08:19:11.941Z,35.4
2016-05-20T08:19:21.941Z,34.7
2016-05-20T08:19:31.957Z,34.2
2016-05-20T08:19:41.943Z,33.9
2016-05-20T08:19:54.302Z,33.9
2016-05-20T08:20:05.412Z,33.9
2016-05-20T08:20:20.380Z,33.7
2016-05-20T08:20:35.462Z,33.6
2016-05-20T08:20:47.930Z,34
2016-05-20T08:21:19.258Z,34.2
2016-05-20T08:21:29.258Z,34.3
2016-05-20T08:21:40.933Z,34.4
2016-05-20T08:21:49.261Z,34.6
2016-05-20T08:21:59.261Z,34.8
2016-05-20T08:22:09.261Z,35
2016-05-20T08:22:22.886Z,35.1
2016-05-20T08:22:34.732Z,35.3
2016-05-20T08:22:44.513Z,35.5
2016-05-20T08:22:56.342Z,35.7
2016-05-20T08:23:05.685Z,36
2016-05-20T08:23:15.654Z,36.6
2016-05-20T08:23:25.638Z,37.2
2016-05-20T08:23:35.641Z,37.4
2016-05-20T08:23:45.641Z,37.4
2016-05-20T08:23:55.641Z,37.3
2016-05-20T08:24:05.641Z,37.4
2016-05-20T08:24:15.641Z,37.6
2016-05-20T08:24:25.626Z,37.8
2016-05-20T08:24:49.519Z,38.2
2016-05-20T08:25:02.473Z,38.3
2016-05-20T08:25:14.363Z,38.3
2016-05-20T08:26:43.681Z,40.1
2016-05-20T08:26:53.665Z,40.2
2016-05-20T08:27:03.665Z,40.3
2016-05-20T08:27:13.665Z,40.4
2016-05-20T08:27:23.681Z,40.6
2016-05-20T08:27:33.665Z,40.9
2016-05-20T08:27:43.668Z,41.2
2016-05-20T08:27:53.668Z,41.3
2016-05-20T08:28:03.668Z,41.4
2016-05-20T08:28:13.668Z,41.6
2016-05-20T08:28:23.668Z,41.7
2016-05-20T08:28:33.684Z,41.8
2016-05-20T08:28:43.670Z,41.9
2016-05-20T08:28:53.670Z,42
2016-05-20T08:29:03.670Z,42.5
2016-05-20T08:29:13.670Z,43.9
2016-05-20T08:29:23.654Z,44.4
2016-05-20T08:29:33.670Z,44.6
2016-05-20T08:29:43.657Z,44.4
2016-05-20T08:29:53.673Z,44
2016-05-20T08:30:03.657Z,43.9
2016-05-20T08:30:13.657Z,44
2016-05-20T08:30:25.845Z,43.9
2016-05-20T08:30:51.832Z,44
2016-05-20T08:31:01.832Z,44.3
2016-05-20T08:31:11.817Z,44.5
2016-05-20T08:31:21.832Z,44.6
2016-05-20T08:31:31.817Z,44.5
2016-05-20T08:31:41.819Z,44.7
2016-05-20T08:31:51.819Z,44.9
2016-05-20T08:32:16.225Z,46.2
2016-05-20T08:32:26.225Z,46.3
2016-05-20T08:32:36.229Z,46
2016-05-20T08:32:46.229Z,46
2016-05-20T08:32:56.229Z,45.8
2016-05-20T08:33:06.229Z,45.5
2016-05-20T08:33:16.229Z,46.2
2016-05-20T08:33:26.260Z,46.3
2016-05-20T08:33:36.231Z,46.4
2016-05-20T08:33:46.215Z,46.7
2016-05-20T08:33:56.215Z,46.5
2016-05-20T08:34:06.215Z,46.2
2016-05-20T08:34:16.231Z,46.2
2016-05-20T08:34:26.215Z,46.1
2016-05-20T08:34:36.250Z,46.1
2016-05-20T08:34:46.953Z,46.5
2016-05-20T08:34:58.687Z,46.7
2016-05-20T08:35:07.062Z,46.8
2016-05-20T08:35:19.390Z,47.4
2016-05-20T08:35:31.906Z,48.4
2016-05-20T08:35:41.517Z,48.4
2016-05-20T08:35:51.517Z,48.1
2016-05-20T08:36:01.517Z,47.8
2016-05-20T08:36:11.517Z,47.4
2016-05-20T08:36:21.548Z,47
2016-05-20T08:36:35.505Z,46.6
2016-05-20T08:36:46.083Z,46.3
2016-05-20T08:36:55.317Z,46.4
2016-05-20T08:37:05.317Z,46.6
2016-05-20T08:37:17.989Z,46.7
2016-05-20T08:37:25.301Z,46.8
2016-05-20T08:37:35.304Z,47
2016-05-20T08:37:45.304Z,47.3
2016-05-20T08:37:55.304Z,48.2
2016-05-20T08:38:05.304Z,49.6
2016-05-20T08:38:15.336Z,50.1
2016-05-20T08:38:25.304Z,49.6
2016-05-20T08:38:35.306Z,49.4
2016-05-20T08:38:45.306Z,49
2016-05-20T08:38:55.306Z,48.5
2016-05-20T08:39:05.306Z,48
2016-05-20T08:39:15.306Z,47.9
2016-05-20T08:39:34.916Z,49.2
2016-05-20T08:39:44.919Z,49
2016-05-20T08:39:54.919Z,48.6
2016-05-20T08:40:04.919Z,48.1
2016-05-20T08:40:14.919Z,47.8
2016-05-20T08:40:24.903Z,47.5
2016-05-20T08:40:34.903Z,47.3
2016-05-20T08:40:44.906Z,47.3
2016-05-20T08:40:54.906Z,47.3
2016-05-20T08:41:05.672Z,47.3
2016-05-20T08:41:14.906Z,47.3
2016-05-20T08:41:24.906Z,47.3
2016-05-20T08:41:36.222Z,47.3
2016-05-20T08:41:49.940Z,47.5
2016-05-20T08:41:59.940Z,47.7
2016-05-20T08:42:09.940Z,48.2
2016-05-20T08:42:19.940Z,48.2
2016-05-20T08:42:29.940Z,48
2016-05-20T08:42:39.928Z,47.8
2016-05-20T08:42:49.928Z,47.8
2016-05-20T08:42:59.943Z,47.8
2016-05-20T08:43:09.943Z,48
2016-05-20T08:43:19.928Z,48.2
2016-05-20T08:43:29.943Z,48.3
2016-05-20T08:43:39.930Z,48.2
2016-05-20T08:43:49.945Z,48.2
2016-05-20T08:43:59.930Z,48.3
2016-05-20T08:44:09.930Z,48.4
2016-05-20T08:44:19.930Z,48.4
2016-05-20T08:44:29.930Z,48.3
2016-05-20T08:44:39.932Z,48.2
2016-05-20T08:44:49.932Z,48.2
2016-05-20T08:44:59.932Z,48.2
2016-05-20T08:45:09.916Z,48.2
2016-05-20T08:45:35.732Z,48.3
2016-05-20T08:45:45.716Z,48.3
2016-05-20T08:45:55.950Z,49
2016-05-20T08:46:05.716Z,50.7
2016-05-20T08:46:15.716Z,50.9
2016-05-20T08:46:25.716Z,50.8
2016-05-20T08:46:35.703Z,50.8
2016-05-20T08:46:45.703Z,50.5
2016-05-20T08:46:55.719Z,50.1
2016-05-20T08:47:05.719Z,49.8
2016-05-20T08:47:15.719Z,49.4
2016-05-20T08:47:25.719Z,49.5
2016-05-20T08:47:35.706Z,49.8
2016-05-20T08:47:45.706Z,49.6
2016-05-20T08:47:55.706Z,49.3
2016-05-20T08:48:05.706Z,48.9
2016-05-20T08:48:15.706Z,49.4
2016-05-20T08:48:25.706Z,50
2016-05-20T08:48:35.709Z,50
2016-05-20T08:48:45.694Z,49.7
2016-05-20T08:48:55.694Z,49.7
2016-05-20T08:49:05.709Z,49.7
2016-05-20T08:49:15.709Z,50.6
2016-05-20T08:49:25.694Z,52
2016-05-20T08:49:35.696Z,53.1
2016-05-20T08:49:45.696Z,53.6
2016-05-20T08:49:55.696Z,53.1
2016-05-20T08:50:05.696Z,52.2
2016-05-20T08:50:15.696Z,51.4
2016-05-20T08:50:25.696Z,50.8
2016-05-20T08:50:35.699Z,50.7
2016-05-20T08:50:45.683Z,50.6
2016-05-20T08:50:55.683Z,50.3
2016-05-20T08:51:05.683Z,49.7
2016-05-20T08:51:15.683Z,49.3
2016-05-20T08:51:25.683Z,49
2016-05-20T08:51:35.686Z,49.5
2016-05-20T08:51:45.686Z,51.6
2016-05-20T08:51:55.686Z,53.1
2016-05-20T08:52:05.686Z,53.1
2016-05-20T08:52:15.686Z,52.1
2016-05-20T08:52:25.686Z,52.1
2016-05-20T08:52:35.688Z,52.4
2016-05-20T08:52:45.673Z,52.9
2016-05-20T08:52:55.688Z,54.4
2016-05-20T08:53:05.673Z,55.1
2016-05-20T08:53:15.688Z,56.5
2016-05-20T08:53:25.688Z,56.3
2016-05-20T08:53:35.691Z,55.5
2016-05-20T08:53:45.691Z,55.1
2016-05-20T08:53:55.676Z,55.1
2016-05-20T08:54:05.676Z,55
2016-05-20T08:54:15.676Z,54.2
2016-05-20T08:54:25.676Z,54
2016-05-20T08:54:35.678Z,55.1
2016-05-20T08:54:45.678Z,54.7
2016-05-20T08:54:55.678Z,54.2
2016-05-20T08:55:05.662Z,54.5
2016-05-20T08:55:15.662Z,54.3
2016-05-20T08:55:25.928Z,53.5
2016-05-20T08:55:35.682Z,52.3
2016-05-20T08:55:45.682Z,51.2
2016-05-20T08:55:55.666Z,50.4
2016-05-20T08:56:05.666Z,49.8
2016-05-20T08:56:15.666Z,49.4
2016-05-20T08:56:25.666Z,49.1
2016-05-20T08:56:35.668Z,49.3
2016-05-20T08:56:45.668Z,50.6
2016-05-20T08:56:55.652Z,51.2
2016-05-20T08:57:05.652Z,52
2016-05-20T08:57:15.652Z,52.4
2016-05-20T08:57:25.668Z,52.8
2016-05-20T08:57:35.654Z,52.9
2016-05-20T08:57:45.654Z,52.6
2016-05-20T08:57:55.654Z,52.2
2016-05-20T08:58:05.654Z,51.6
2016-05-20T08:58:15.670Z,50.7
2016-05-20T08:58:25.654Z,50.1
2016-05-20T08:58:35.658Z,49.5
2016-05-20T08:58:45.815Z,49.1
2016-05-20T08:58:55.658Z,48.8
2016-05-20T08:59:05.643Z,48.5
2016-05-20T08:59:41.832Z,51.5
2016-05-20T08:59:51.817Z,51
2016-05-20T09:00:01.785Z,50.4
2016-05-20T09:00:11.785Z,49.7
2016-05-20T09:00:21.801Z,49.5
2016-05-20T09:00:31.801Z,49.9
2016-05-20T09:00:41.788Z,49.8
2016-05-20T09:00:51.788Z,49.5
2016-05-20T09:01:01.788Z,49.4
2016-05-20T09:01:11.788Z,49.3
2016-05-20T09:01:21.788Z,49.1
2016-05-20T09:01:31.773Z,48.9
2016-05-20T09:01:41.775Z,48.8
2016-05-20T09:01:51.790Z,48.6
2016-05-20T09:02:01.790Z,48.5
2016-05-20T09:02:11.775Z,48.5
2016-05-20T09:02:21.775Z,48.7
2016-05-20T09:02:31.775Z,50.3
2016-05-20T09:02:41.778Z,51
2016-05-20T09:02:51.793Z,51.2
2016-05-20T09:03:01.778Z,50.9
2016-05-20T09:03:11.778Z,50.5
2016-05-20T09:03:21.778Z,50.1
2016-05-20T09:03:31.778Z,49.7
2016-05-20T09:03:41.765Z,49.4
2016-05-20T09:03:51.765Z,49.2
2016-05-20T09:04:01.765Z,49
2016-05-20T09:04:11.765Z,49
2016-05-20T09:04:21.781Z,49
2016-05-20T09:04:31.843Z,49
2016-05-20T09:04:41.768Z,48.8
2016-05-20T09:04:51.940Z,48.7
2016-05-20T09:05:01.784Z,48.5
2016-05-20T09:05:11.768Z,48.4
2016-05-20T09:05:21.768Z,48.4
2016-05-20T09:05:31.784Z,48.3
2016-05-20T09:05:41.786Z,48.9
2016-05-20T09:05:51.770Z,49.2
2016-05-20T09:06:01.770Z,49.3
2016-05-20T09:06:11.754Z,49.4
2016-05-20T09:06:21.770Z,49.3
2016-05-20T09:06:31.786Z,49.2
2016-05-20T09:06:41.756Z,49
2016-05-20T09:06:51.756Z,48.8
2016-05-20T09:07:01.756Z,48.6
2016-05-20T09:07:11.756Z,48.4
2016-05-20T09:07:21.756Z,48.4
2016-05-20T09:07:31.756Z,48.6
2016-05-20T09:07:41.745Z,48.6
2016-05-20T09:07:51.760Z,48.5
2016-05-20T09:08:01.745Z,48.3
2016-05-20T09:08:12.057Z,48.3
2016-05-20T09:08:21.745Z,48.4
2016-05-20T09:08:31.745Z,48.5
2016-05-20T09:08:41.762Z,48.4
2016-05-20T09:08:51.747Z,48.5
2016-05-20T09:09:01.762Z,48.6
2016-05-20T09:09:11.747Z,48.7
2016-05-20T09:09:21.762Z,49.2
2016-05-20T09:09:31.747Z,49.4
2016-05-20T09:09:41.765Z,49.3
2016-05-20T09:09:52.140Z,49.9
2016-05-20T09:10:01.734Z,51.2
2016-05-20T09:10:12.094Z,52.4
2016-05-20T09:10:21.750Z,52.7
2016-05-20T09:10:32.250Z,52.7
2016-05-20T09:10:41.940Z,53.6
2016-05-20T09:10:51.737Z,53.6
2016-05-20T09:11:01.737Z,52.9
2016-05-20T09:11:11.737Z,52
2016-05-20T09:11:21.737Z,51.1
2016-05-20T09:11:31.753Z,50.5
2016-05-20T09:11:41.739Z,49.9
2016-05-20T09:11:51.724Z,50.2
2016-05-20T09:12:01.739Z,51.8
2016-05-20T09:12:11.724Z,53.2
2016-05-20T09:12:21.724Z,53.8
2016-05-20T09:12:31.724Z,53.9
2016-05-20T09:12:41.727Z,53.2
2016-05-20T09:12:51.727Z,52.1
2016-05-20T09:13:01.727Z,51.2
2016-05-20T09:13:11.727Z,50.5
2016-05-20T09:13:22.164Z,49.9
2016-05-20T09:13:31.727Z,49.7
2016-05-20T09:13:41.714Z,49.5
2016-05-20T09:13:51.714Z,49.3
2016-05-20T09:14:01.714Z,49.2
2016-05-20T09:14:11.730Z,49
2016-05-20T09:14:21.714Z,48.8
2016-05-20T09:14:31.714Z,48.6
2016-05-20T09:14:41.716Z,48.5
2016-05-20T09:14:51.716Z,50.2
2016-05-20T09:15:19.075Z,52.1
2016-05-20T09:15:29.075Z,51.4
2016-05-20T09:15:39.063Z,51
2016-05-20T09:15:49.063Z,50.6
2016-05-20T09:15:59.078Z,50.1
2016-05-20T09:16:09.063Z,49.7
2016-05-20T09:16:19.078Z,49.7
2016-05-20T09:16:29.063Z,49.6
2016-05-20T09:16:39.066Z,49.4
2016-05-20T09:16:49.066Z,49.3
2016-05-20T09:16:59.113Z,49.6
2016-05-20T09:17:09.066Z,49.6
2016-05-20T09:17:19.050Z,49.7
2016-05-20T09:17:29.066Z,49.8
2016-05-20T09:17:39.053Z,50.2
2016-05-20T09:17:49.053Z,52.3
2016-05-20T09:17:59.053Z,53
2016-05-20T09:18:09.053Z,52.6
2016-05-20T09:18:19.850Z,52.8
2016-05-20T09:18:29.053Z,51.9
2016-05-20T09:18:39.056Z,51.2
2016-05-20T09:18:49.056Z,51.1
2016-05-20T09:18:59.087Z,50.5
2016-05-20T09:19:09.056Z,49.9
2016-05-20T09:19:19.056Z,49.6
2016-05-20T09:19:29.056Z,49.3
2016-05-20T09:19:39.058Z,49.1
2016-05-20T09:19:49.042Z,48.9
2016-05-20T09:19:59.042Z,48.8
2016-05-20T09:20:09.042Z,49.4
2016-05-20T09:20:19.042Z,49.5
2016-05-20T09:20:29.042Z,50.9
2016-05-20T09:20:39.045Z,51.8
2016-05-20T09:20:49.045Z,51.3
2016-05-20T09:20:59.045Z,50.5
2016-05-20T09:21:09.045Z,49.9
2016-05-20T09:21:19.045Z,49.3
2016-05-20T09:21:29.045Z,49
2016-05-20T09:21:39.047Z,48.7
2016-05-20T09:21:49.032Z,48.6
2016-05-20T09:21:59.032Z,48.6
2016-05-20T09:22:09.032Z,48.5
2016-05-20T09:22:19.032Z,48.5
2016-05-20T09:22:29.032Z,48.5
2016-05-20T09:22:39.035Z,48.5
2016-05-20T09:22:49.035Z,49.4
2016-05-20T09:22:59.035Z,52.4
2016-05-20T09:23:09.035Z,53.6
2016-05-20T09:23:19.035Z,52.8
2016-05-20T09:23:29.035Z,51.8
2016-05-20T09:23:39.038Z,50.9
2016-05-20T09:23:50.319Z,50.9
2016-05-20T09:23:59.022Z,50.6
2016-05-20T09:24:09.022Z,50.3
2016-05-20T09:24:19.053Z,50
2016-05-20T09:24:29.022Z,50.1
2016-05-20T09:24:39.024Z,50
2016-05-20T09:24:49.024Z,49.9
2016-05-20T09:24:59.024Z,49.8
2016-05-20T09:25:09.024Z,49.7
2016-05-20T09:25:19.024Z,50.6
2016-05-20T09:25:29.009Z,50.6
2016-05-20T09:25:39.027Z,50.4
2016-05-20T09:25:49.027Z,50.5
2016-05-20T09:25:59.027Z,50.5
2016-05-20T09:26:09.012Z,50.3
2016-05-20T09:26:19.012Z,49.9
2016-05-20T09:26:29.012Z,49.6
2016-05-20T09:26:39.014Z,49.5
2016-05-20T09:26:49.014Z,50.2
2016-05-20T09:26:59.014Z,50.1
2016-05-20T09:27:09.014Z,49.7
2016-05-20T09:27:19.014Z,49.4
2016-05-20T09:27:29.014Z,49.2
2016-05-20T09:27:39.018Z,49
2016-05-20T09:27:49.018Z,48.9
2016-05-20T09:27:59.002Z,48.8
2016-05-20T09:28:09.002Z,48.6
2016-05-20T09:28:19.002Z,48.6
2016-05-20T09:28:29.002Z,48.5
2016-05-20T09:28:39.004Z,48.5
2016-05-20T09:28:49.004Z,48.5
2016-05-20T09:29:25.207Z,48.8
2016-05-20T09:29:35.160Z,48.9
2016-05-20T09:29:45.194Z,48.9
2016-05-20T09:29:55.163Z,48.9
2016-05-20T09:30:05.163Z,48.9
2016-05-20T09:30:15.163Z,48.9
2016-05-20T09:30:25.163Z,49
2016-05-20T09:30:35.163Z,49.1
2016-05-20T09:30:45.166Z,49.2
2016-05-20T09:30:55.166Z,49.2
2016-05-20T09:31:05.166Z,49.4
2016-05-20T09:31:15.166Z,49.4
2016-05-20T09:31:25.151Z,49.3
2016-05-20T09:31:35.151Z,49.7
2016-05-20T09:31:45.153Z,51.5
2016-05-20T09:31:55.153Z,51.9
2016-05-20T09:32:05.153Z,52.2
2016-05-20T09:32:15.153Z,52.8
2016-05-20T09:32:25.168Z,52.8
2016-05-20T09:32:35.153Z,52.4
2016-05-20T09:32:45.156Z,53
2016-05-20T09:32:55.140Z,53.3
2016-05-20T09:33:05.156Z,54
2016-05-20T09:33:15.156Z,54.6
2016-05-20T09:33:25.156Z,54.7
2016-05-20T09:33:35.140Z,54.1
2016-05-20T09:33:45.143Z,53.3
2016-05-20T09:33:55.143Z,52.5
2016-05-20T09:34:07.955Z,51.6
2016-05-20T09:34:15.143Z,50.7
2016-05-20T09:34:25.143Z,50.9
2016-05-20T09:34:35.143Z,50.5
2016-05-20T09:34:45.145Z,50
2016-05-20T09:34:55.145Z,49.7
2016-05-20T09:35:05.145Z,49.4
2016-05-20T09:35:15.129Z,49.3
2016-05-20T09:35:25.145Z,49.2
2016-05-20T09:35:35.145Z,49.1
2016-05-20T09:35:45.132Z,48.9
2016-05-20T09:35:55.132Z,48.8
2016-05-20T09:36:05.132Z,48.9
2016-05-20T09:36:15.132Z,48.9
2016-05-20T09:36:25.132Z,48.8
2016-05-20T09:36:35.132Z,48.9
2016-05-20T09:36:45.134Z,49
2016-05-20T09:36:55.134Z,49.2
2016-05-20T09:37:05.134Z,49.4
2016-05-20T09:37:15.119Z,49.8
2016-05-20T09:37:25.119Z,50.4
2016-05-20T09:37:35.119Z,50.4
2016-05-20T09:37:45.153Z,50
2016-05-20T09:37:55.122Z,49.8
2016-05-20T09:38:05.122Z,49.6
2016-05-20T09:38:15.122Z,49.4
2016-05-20T09:38:25.122Z,49.2
2016-05-20T09:38:35.153Z,49.1
2016-05-20T09:38:45.125Z,49
2016-05-20T09:38:55.125Z,48.9
2016-05-20T09:39:05.125Z,48.9
2016-05-20T09:39:15.109Z,48.9
2016-05-20T09:39:25.109Z,48.9
2016-05-20T09:39:35.125Z,48.9
2016-05-20T09:39:45.111Z,49
2016-05-20T09:39:55.127Z,48.9
2016-05-20T09:40:05.111Z,48.9
2016-05-20T09:40:15.174Z,48.9
2016-05-20T09:40:25.111Z,48.9
2016-05-20T09:40:35.111Z,48.9
2016-05-20T09:40:45.114Z,48.8
2016-05-20T09:40:55.114Z,48.7
2016-05-20T09:41:05.114Z,48.7
2016-05-20T09:41:15.098Z,48.7
2016-05-20T09:41:25.098Z,48.9
2016-05-20T09:41:35.098Z,50.1
2016-05-20T09:41:45.117Z,51
2016-05-20T09:41:55.101Z,51.2
2016-05-20T09:42:05.117Z,50.7
2016-05-20T09:42:15.101Z,50.2
2016-05-20T09:42:25.101Z,49.7
2016-05-20T09:42:35.101Z,49.4
2016-05-20T09:42:45.104Z,49.1
2016-05-20T09:42:55.104Z,48.9
2016-05-20T09:43:05.104Z,48.8
2016-05-20T09:43:15.136Z,49.3
2016-05-20T09:43:25.104Z,49.7
2016-05-20T09:43:35.089Z,49.6
2016-05-20T09:43:45.092Z,49.6
2016-05-20T09:43:55.092Z,49.5
2016-05-20T09:44:05.092Z,49.4
2016-05-20T09:44:15.592Z,49.3
2016-05-20T09:44:25.092Z,49.3
2016-05-20T09:44:35.092Z,49.4
2016-05-20T09:44:45.094Z,49.4
2016-05-20T09:44:55.094Z,49.3
2016-05-20T09:45:05.078Z,49.4
2016-05-20T09:45:15.109Z,49.4
2016-05-20T09:45:25.094Z,50.8
2016-05-20T09:45:35.078Z,51
2016-05-20T09:45:45.081Z,50.5
2016-05-20T09:45:55.081Z,50
2016-05-20T09:46:05.081Z,49.6
2016-05-20T09:46:15.081Z,49.3
2016-05-20T09:46:25.081Z,49.1
2016-05-20T09:46:35.081Z,48.9
2016-05-20T09:46:45.083Z,48.8
2016-05-20T09:46:55.083Z,49.7
2016-05-20T09:47:05.083Z,50.3
2016-05-20T09:47:15.083Z,50.1
2016-05-20T09:47:25.083Z,49.8
2016-05-20T09:47:35.083Z,49.5
2016-05-20T09:47:45.086Z,49.2
2016-05-20T09:47:55.071Z,49
2016-05-20T09:48:05.071Z,49.2
2016-05-20T09:48:15.071Z,49.1
2016-05-20T09:48:25.071Z,49
2016-05-20T09:48:35.071Z,49.3
2016-05-20T09:48:45.074Z,52.7
2016-05-20T09:48:55.074Z,54.5
2016-05-20T09:49:05.074Z,54.4
2016-05-20T09:49:15.745Z,53.3
2016-05-20T09:49:25.074Z,51.8
2016-05-20T09:49:35.058Z,50.7
2016-05-20T09:49:45.061Z,50
2016-05-20T09:49:55.061Z,49.7
2016-05-20T09:50:05.061Z,50.2
2016-05-20T09:50:15.061Z,50.5
2016-05-20T09:50:25.061Z,50.2
2016-05-20T09:50:35.061Z,49.9
2016-05-20T09:50:45.063Z,50.1
2016-05-20T09:50:55.063Z,50.2
2016-05-20T09:51:05.063Z,50.1
2016-05-20T09:51:15.922Z,49.9
2016-05-20T09:51:25.063Z,49.4
2016-05-20T09:51:35.063Z,49.4
2016-05-20T09:51:45.050Z,49.5
2016-05-20T09:51:55.050Z,49.4
2016-05-20T09:52:05.050Z,49.1
2016-05-20T09:52:15.050Z,48.8
2016-05-20T09:52:25.097Z,48.7
2016-05-20T09:52:35.050Z,48.6
2016-05-20T09:52:45.053Z,48.5
2016-05-20T09:52:55.069Z,48.5
2016-05-20T09:53:05.053Z,48.4
2016-05-20T09:53:15.053Z,48.4
2016-05-20T09:53:25.038Z,48.3
2016-05-20T09:53:35.038Z,48.3
2016-05-20T09:53:45.040Z,48.3
2016-05-20T10:46:23.431Z,60.3
2016-05-20T10:46:33.368Z,59.9
2016-05-20T10:46:43.370Z,59.5
2016-05-20T10:46:53.401Z,59.1
2016-05-20T10:47:03.355Z,58.8
2016-05-20T10:47:13.370Z,58.5
2016-05-20T10:47:23.355Z,58.2
2016-05-20T10:47:33.355Z,58
2016-05-20T10:47:43.358Z,57.8
2016-05-20T10:47:53.358Z,57.7
2016-05-20T10:48:03.358Z,57.6
2016-05-20T10:48:13.358Z,57.4
2016-05-20T10:48:24.154Z,57.3
2016-05-20T10:48:33.342Z,57.1
2016-05-20T10:48:55.939Z,56.8
2016-05-20T10:49:05.939Z,56.7
2016-05-20T10:49:15.939Z,56.6
2016-05-20T10:49:25.939Z,56.6
2016-05-20T10:49:35.923Z,56.5
2016-05-20T10:53:02.667Z,55.7
2016-05-20T10:53:12.714Z,55.9
2016-05-20T10:53:24.292Z,55.8
2016-05-20T10:53:32.652Z,55.8
2016-05-20T10:53:43.483Z,55.6
2016-05-20T10:53:52.655Z,55.6
2016-05-20T10:54:02.639Z,55.8
2016-05-20T10:54:12.639Z,55.9
2016-05-20T10:54:22.639Z,55.9
2016-05-20T10:54:32.639Z,55.8
2016-05-20T10:54:42.641Z,55.7
2016-05-20T10:54:52.797Z,55.9
2016-05-20T10:55:02.641Z,55.7
2016-05-20T10:55:12.626Z,55.5
2016-05-20T10:55:22.641Z,55.4
2016-05-20T10:55:32.969Z,55.2
2016-05-20T10:55:42.832Z,55.1
2016-05-20T10:55:52.629Z,55
2016-05-20T10:56:02.629Z,54.9
2016-05-20T10:56:12.629Z,54.8
2016-05-20T10:56:22.613Z,54.7
2016-05-20T10:56:32.691Z,54.6
2016-05-20T10:56:42.616Z,54.6
2016-05-20T10:56:52.616Z,54.9
2016-05-20T10:57:02.616Z,55.2
2016-05-20T10:57:12.616Z,55.7
2016-05-20T10:57:34.616Z,56.8
2016-05-20T10:57:44.635Z,57.2
2016-05-20T10:57:54.619Z,57.7
2016-05-20T10:58:04.603Z,58.1
2016-05-20T10:58:14.603Z,58.5
2016-05-20T10:58:24.619Z,58.9
2016-05-20T10:58:34.603Z,59.4
2016-05-20T10:58:44.606Z,59.8
2016-05-20T10:58:54.606Z,60.2